createdAt,value
2022-11-24T00:01:22.038Z,98206.00
2022-11-24T00:02:54.763Z,98217.00
2022-11-24T00:04:28.058Z,98216.00
2022-11-24T00:06:05.505Z,98221.00
2022-11-24T00:07:40.476Z,98218.00
2022-11-24T00:09:12.797Z,98224.00
2022-11-24T00:10:48.222Z,98223.00
2022-11-24T00:12:21.629Z,98227.00
2022-11-24T00:13:54.646Z,98222.00
2022-11-24T00:15:27.853Z,98226.00
2022-11-24T00:17:01.235Z,98226.00
2022-11-24T00:18:33.788Z,98229.00
2022-11-24T00:20:08.730Z,98227.00
2022-11-24T00:21:40.759Z,98232.00
2022-11-24T00:23:15.274Z,98229.00
2022-11-24T00:24:48.519Z,98219.00
2022-11-24T00:26:24.254Z,98224.00
2022-11-24T00:27:57.713Z,98222.00
2022-11-24T00:29:30.800Z,98224.00
2022-11-24T00:31:03.929Z,98223.00
2022-11-24T00:32:37.157Z,98232.00
2022-11-24T00:34:15.285Z,98225.00
2022-11-24T00:35:56.842Z,98226.00
2022-11-24T00:37:30.056Z,98225.00
2022-11-24T00:39:08.281Z,98230.00
2022-11-24T00:40:40.412Z,98229.00
2022-11-24T00:42:14.307Z,98238.00
2022-11-24T00:43:47.499Z,98231.00
2022-11-24T00:45:20.640Z,98235.00
2022-11-24T00:46:53.882Z,98232.00
2022-11-24T00:48:27.448Z,98239.00
2022-11-24T00:50:00.653Z,98237.00
2022-11-24T00:51:34.427Z,98237.00
2022-11-24T00:53:06.731Z,98246.00
2022-11-24T00:54:41.256Z,98236.00
2022-11-24T00:56:14.816Z,98242.00
2022-11-24T00:57:47.960Z,98240.00
2022-11-24T00:59:21.194Z,98233.00
2022-11-24T01:00:53.605Z,98237.00
2022-11-24T01:02:27.521Z,98249.00
2022-11-24T01:04:02.329Z,98245.00
2022-11-24T01:05:37.622Z,98249.00
2022-11-24T01:07:10.873Z,98250.00
2022-11-24T01:08:44.724Z,98247.00
2022-11-24T01:10:19.511Z,98249.00
2022-11-24T01:12:04.098Z,98257.00
2022-11-24T01:13:37.697Z,98251.00
2022-11-24T01:15:10.214Z,98257.00
2022-11-24T01:16:43.345Z,98261.00
2022-11-24T01:18:16.490Z,98262.00
2022-11-24T01:19:49.109Z,98258.00
2022-11-24T01:21:22.920Z,98260.00
2022-11-24T01:22:55.004Z,98251.00
2022-11-24T01:24:28.203Z,98259.00
2022-11-24T01:26:06.524Z,98263.00
2022-11-24T01:27:39.874Z,98264.00
2022-11-24T01:29:12.732Z,98259.00
2022-11-24T01:30:47.052Z,98265.00
2022-11-24T01:32:20.204Z,98264.00
2022-11-24T01:33:54.061Z,98258.00
2022-11-24T01:35:27.152Z,98270.00
2022-11-24T01:37:00.322Z,98266.00
2022-11-24T01:38:34.096Z,98266.00
2022-11-24T01:40:09.732Z,98267.00
2022-11-24T01:41:44.209Z,98262.00
2022-11-24T01:43:20.849Z,98268.00
2022-11-24T01:45:42.603Z,98268.00
2022-11-24T01:47:35.305Z,98272.00
2022-11-24T01:49:17.811Z,98274.00
2022-11-24T01:50:59.297Z,98271.00
2022-11-24T01:52:39.056Z,98270.00
2022-11-24T01:54:18.897Z,98268.00
2022-11-24T01:55:54.100Z,98268.00
2022-11-24T01:57:33.305Z,98271.00
2022-11-24T01:59:19.231Z,98268.00
2022-11-24T02:00:53.282Z,98280.00
2022-11-24T02:02:30.206Z,98267.00
2022-11-24T02:04:09.948Z,98269.00
2022-11-24T02:05:50.226Z,98279.00
2022-11-24T02:07:22.784Z,98288.00
2022-11-24T02:09:01.720Z,98285.00
2022-11-24T02:10:34.056Z,98284.00
2022-11-24T02:12:08.873Z,98292.00
2022-11-24T02:13:45.598Z,98285.00
2022-11-24T02:15:20.466Z,98283.00
2022-11-24T02:16:53.933Z,98282.00
2022-11-24T02:18:27.300Z,98288.00
2022-11-24T02:20:04.110Z,98289.00
2022-11-24T02:21:37.601Z,98289.00
2022-11-24T02:23:21.735Z,98285.00
2022-11-24T02:25:04.288Z,98292.00
2022-11-24T02:26:43.915Z,98294.00
2022-11-24T02:28:21.895Z,98303.00
2022-11-24T02:29:55.338Z,98306.00
2022-11-24T02:31:29.065Z,98304.00
2022-11-24T02:33:03.368Z,98306.00
2022-11-24T02:34:36.842Z,98302.00
2022-11-24T02:36:10.233Z,98305.00
2022-11-24T02:37:42.850Z,98300.00
2022-11-24T02:39:16.761Z,98297.00
2022-11-24T02:40:50.913Z,98297.00
2022-11-24T02:42:27.779Z,98304.00
2022-11-24T02:44:03.351Z,98301.00
2022-11-24T02:45:35.681Z,98303.00
2022-11-24T02:47:12.308Z,98303.00
2022-11-24T02:48:45.674Z,98311.00
2022-11-24T02:50:18.337Z,98301.00
2022-11-24T02:51:51.577Z,98308.00
2022-11-24T02:53:23.782Z,98301.00
2022-11-24T02:54:57.024Z,98314.00
2022-11-24T02:56:30.180Z,98311.00
2022-11-24T02:58:04.877Z,98316.00
2022-11-24T02:59:38.202Z,98309.00
2022-11-24T03:01:10.478Z,98311.00
2022-11-24T03:02:43.759Z,98306.00
2022-11-24T03:04:17.032Z,98317.00
2022-11-24T03:05:49.338Z,98314.00
2022-11-24T03:07:22.951Z,98309.00
2022-11-24T03:08:56.157Z,98323.00
2022-11-24T03:10:29.286Z,98316.00
2022-11-24T03:12:02.767Z,98312.00
2022-11-24T03:13:37.281Z,98318.00
2022-11-24T03:15:11.659Z,98321.00
2022-11-24T03:16:44.903Z,98328.00
2022-11-24T03:18:18.259Z,98316.00
2022-11-24T03:19:51.403Z,98317.00
2022-11-24T03:21:24.565Z,98315.00
2022-11-24T03:22:58.101Z,98314.00
2022-11-24T03:24:31.484Z,98327.00
2022-11-24T03:26:09.893Z,98323.00
2022-11-24T03:27:43.107Z,98322.00
2022-11-24T03:29:17.842Z,98319.00
2022-11-24T03:30:51.115Z,98316.00
2022-11-24T03:32:24.389Z,98323.00
2022-11-24T03:33:57.534Z,98320.00
2022-11-24T03:35:30.826Z,98315.00
2022-11-24T03:37:04.036Z,98311.00
2022-11-24T03:38:36.479Z,98309.00
2022-11-24T03:40:10.936Z,98319.00
2022-11-24T03:41:44.123Z,98313.00
2022-11-24T03:43:17.340Z,98316.00
2022-11-24T03:44:50.916Z,98313.00
2022-11-24T03:46:24.637Z,98318.00
2022-11-24T03:47:58.050Z,98325.00
2022-11-24T03:49:31.387Z,98320.00
2022-11-24T03:51:04.035Z,98316.00
2022-11-24T03:52:37.136Z,98315.00
2022-11-24T03:54:10.524Z,98323.00
2022-11-24T03:55:43.828Z,98325.00
2022-11-24T03:57:17.316Z,98322.00
2022-11-24T03:58:50.075Z,98330.00
2022-11-24T04:00:24.911Z,98326.00
2022-11-24T04:01:58.050Z,98339.00
2022-11-24T04:03:31.573Z,98326.00
2022-11-24T04:05:05.761Z,98329.00
2022-11-24T04:06:38.244Z,98330.00
2022-11-24T04:08:11.765Z,98345.00
2022-11-24T04:09:44.457Z,98343.00
2022-11-24T04:11:31.525Z,98342.00
2022-11-24T04:13:06.276Z,98346.00
2022-11-24T04:14:38.488Z,98352.00
2022-11-24T04:16:12.945Z,98348.00
2022-11-24T04:17:48.303Z,98340.00
2022-11-24T04:19:21.826Z,98355.00
2022-11-24T04:20:54.935Z,98341.00
2022-11-24T04:22:27.301Z,98339.00
2022-11-24T04:24:00.693Z,98329.00
2022-11-24T04:25:34.363Z,98334.00
2022-11-24T04:27:06.488Z,98337.00
2022-11-24T04:28:39.643Z,98337.00
2022-11-24T04:30:13.408Z,98347.00
2022-11-24T04:31:47.997Z,98344.00
2022-11-24T04:33:21.086Z,98350.00
2022-11-24T04:34:54.360Z,98348.00
2022-11-24T04:36:27.486Z,98348.00
2022-11-24T04:38:03.737Z,98362.00
2022-11-24T04:39:36.039Z,98350.00
2022-11-24T04:41:10.062Z,98365.00
2022-11-24T04:42:43.504Z,98359.00
2022-11-24T04:44:17.076Z,98358.00
2022-11-24T04:45:50.259Z,98374.00
2022-11-24T04:47:27.260Z,98358.00
2022-11-24T04:49:00.612Z,98366.00
2022-11-24T04:50:33.698Z,98369.00
2022-11-24T04:52:05.893Z,98369.00
2022-11-24T04:53:39.225Z,98367.00
2022-11-24T04:55:11.932Z,98372.00
2022-11-24T04:56:45.451Z,98374.00
2022-11-24T04:58:18.893Z,98379.00
2022-11-24T04:59:53.018Z,98365.00
2022-11-24T05:01:25.379Z,98380.00
2022-11-24T05:03:00.188Z,98388.00
2022-11-24T05:04:33.879Z,98380.00
2022-11-24T05:06:08.764Z,98390.00
2022-11-24T05:07:41.073Z,98380.00
2022-11-24T05:09:17.584Z,98392.00
2022-11-24T05:10:50.040Z,98397.00
2022-11-24T05:12:24.441Z,98388.00
2022-11-24T05:13:57.763Z,98395.00
2022-11-24T05:15:31.341Z,98401.00
2022-11-24T05:17:04.455Z,98402.00
2022-11-24T05:18:39.409Z,98400.00
2022-11-24T05:20:11.634Z,98401.00
2022-11-24T05:21:44.883Z,98406.00
2022-11-24T05:23:18.353Z,98407.00
2022-11-24T05:24:51.648Z,98414.00
2022-11-24T05:26:24.842Z,98408.00
2022-11-24T05:28:01.399Z,98411.00
2022-11-24T05:29:33.557Z,98417.00
2022-11-24T05:31:06.976Z,98410.00
2022-11-24T05:32:39.485Z,98409.00
2022-11-24T05:34:14.142Z,98419.00
2022-11-24T05:35:48.956Z,98419.00
2022-11-24T05:37:21.467Z,98413.00
2022-11-24T05:38:54.629Z,98415.00
2022-11-24T05:40:26.770Z,98417.00
2022-11-24T05:42:00.237Z,98418.00
2022-11-24T05:43:33.480Z,98422.00
2022-11-24T05:45:09.168Z,98423.00
2022-11-24T05:46:43.017Z,98427.00
2022-11-24T05:48:16.705Z,98420.00
2022-11-24T05:49:50.270Z,98420.00
2022-11-24T05:51:23.331Z,98418.00
2022-11-24T05:52:56.449Z,98418.00
2022-11-24T05:54:28.640Z,98421.00
2022-11-24T05:56:04.234Z,98422.00
2022-11-24T05:57:37.873Z,98429.00
2022-11-24T05:59:11.000Z,98431.00
2022-11-24T06:00:44.208Z,98430.00
2022-11-24T06:02:16.538Z,98433.00
2022-11-24T06:03:49.703Z,98438.00
2022-11-24T06:05:24.489Z,98438.00
2022-11-24T06:06:57.557Z,98434.00
2022-11-24T06:08:31.340Z,98452.00
2022-11-24T06:10:05.795Z,98442.00
2022-11-24T06:11:39.062Z,98449.00
2022-11-24T06:13:12.288Z,98444.00
2022-11-24T06:14:45.633Z,98446.00
2022-11-24T06:16:19.063Z,98451.00
2022-11-24T06:17:56.537Z,98451.00
2022-11-24T06:19:28.991Z,98447.00
2022-11-24T06:21:12.835Z,98448.00
2022-11-24T06:22:46.064Z,98450.00
2022-11-24T06:24:19.328Z,98452.00
2022-11-24T06:25:52.446Z,98447.00
2022-11-24T06:27:26.547Z,98468.00
2022-11-24T06:29:01.446Z,98467.00
2022-11-24T06:30:34.673Z,98467.00
2022-11-24T06:32:08.335Z,98465.00
2022-11-24T06:33:41.601Z,98460.00
2022-11-24T06:35:15.318Z,98475.00
2022-11-24T06:36:49.866Z,98459.00
2022-11-24T06:38:24.479Z,98469.00
2022-11-24T06:39:57.906Z,98473.00
2022-11-24T06:41:32.624Z,98481.00
2022-11-24T06:43:05.746Z,98487.00
2022-11-24T06:44:39.276Z,98485.00
2022-11-24T06:46:13.255Z,98493.00
2022-11-24T06:47:46.783Z,98492.00
2022-11-24T06:49:20.155Z,98493.00
2022-11-24T06:50:54.189Z,98492.00
2022-11-24T06:52:28.673Z,98485.00
2022-11-24T06:54:02.112Z,98489.00
2022-11-24T06:55:35.345Z,98496.00
2022-11-24T06:57:08.582Z,98494.00
2022-11-24T06:58:43.253Z,98494.00
2022-11-24T07:00:18.007Z,98492.00
2022-11-24T07:01:52.053Z,98493.00
2022-11-24T07:03:25.397Z,98504.00
2022-11-24T07:05:01.542Z,98502.00
2022-11-24T07:06:34.773Z,98514.00
2022-11-24T07:08:14.612Z,98509.00
2022-11-24T07:09:50.752Z,98520.00
2022-11-24T07:11:25.193Z,98516.00
2022-11-24T07:12:58.500Z,98516.00
2022-11-24T07:14:31.875Z,98536.00
2022-11-24T07:16:14.526Z,98519.00
2022-11-24T07:17:47.778Z,98541.00
2022-11-24T07:19:24.871Z,98536.00
2022-11-24T07:20:58.384Z,98543.00
2022-11-24T07:22:31.615Z,98538.00
2022-11-24T07:24:07.561Z,98553.00
2022-11-24T07:25:40.709Z,98542.00
2022-11-24T07:27:13.963Z,98557.00
2022-11-24T07:28:48.056Z,98557.00
2022-11-24T07:30:21.327Z,98540.00
2022-11-24T07:31:54.520Z,98547.00
2022-11-24T07:33:27.930Z,98546.00
2022-11-24T07:35:01.313Z,98543.00
2022-11-24T07:36:34.462Z,98556.00
2022-11-24T07:38:07.721Z,98557.00
2022-11-24T07:39:42.212Z,98560.00
2022-11-24T07:41:19.370Z,98565.00
2022-11-24T07:42:52.679Z,98559.00
2022-11-24T07:44:26.003Z,98563.00
2022-11-24T07:45:59.261Z,98574.00
2022-11-24T07:47:33.608Z,98572.00
2022-11-24T07:49:06.838Z,98579.00
2022-11-24T07:50:40.117Z,98581.00
2022-11-24T07:52:13.340Z,98579.00
2022-11-24T07:53:47.248Z,98580.00
2022-11-24T07:55:22.220Z,98592.00
2022-11-24T07:56:55.460Z,98582.00
2022-11-24T07:58:32.664Z,98598.00
2022-11-24T08:00:09.292Z,98596.00
2022-11-24T08:01:42.433Z,98599.00
2022-11-24T08:03:16.081Z,98602.00
2022-11-24T08:04:49.282Z,98608.00
2022-11-24T08:06:26.242Z,98607.00
2022-11-24T08:08:02.261Z,98604.00
2022-11-24T08:09:35.435Z,98606.00
2022-11-24T08:11:13.228Z,98620.00
2022-11-24T08:12:46.881Z,98619.00
2022-11-24T08:14:20.141Z,98625.00
2022-11-24T08:15:53.306Z,98622.00
2022-11-24T08:17:26.461Z,98627.00
2022-11-24T08:18:59.699Z,98642.00
2022-11-24T08:20:32.957Z,98634.00
2022-11-24T08:22:06.309Z,98652.00
2022-11-24T08:23:39.817Z,98648.00
2022-11-24T08:25:14.360Z,98647.00
2022-11-24T08:26:49.014Z,98647.00
2022-11-24T08:28:22.487Z,98656.00
2022-11-24T08:29:55.829Z,98653.00
2022-11-24T08:31:34.189Z,98647.00
2022-11-24T08:33:07.404Z,98642.00
2022-11-24T08:34:40.590Z,98649.00
2022-11-24T08:36:16.093Z,98649.00
2022-11-24T08:37:49.317Z,98652.00
2022-11-24T08:39:22.578Z,98651.00
2022-11-24T08:40:55.707Z,98653.00
2022-11-24T08:42:30.227Z,98660.00
2022-11-24T08:44:03.523Z,98664.00
2022-11-24T08:45:41.208Z,98668.00
2022-11-24T08:47:14.992Z,98670.00
2022-11-24T08:48:50.286Z,98666.00
2022-11-24T08:50:25.355Z,98664.00
2022-11-24T08:51:59.158Z,98670.00
2022-11-24T08:53:32.421Z,98666.00
2022-11-24T08:55:06.416Z,98673.00
2022-11-24T08:56:40.052Z,98675.00
2022-11-24T08:58:14.618Z,98676.00
2022-11-24T08:59:47.742Z,98681.00
2022-11-24T09:01:21.325Z,98667.00
2022-11-24T09:02:57.514Z,98678.00
2022-11-24T09:04:30.822Z,98682.00
2022-11-24T09:06:04.562Z,98688.00
2022-11-24T09:07:37.834Z,98684.00
2022-11-24T09:09:11.809Z,98681.00
2022-11-24T09:10:45.064Z,98694.00
2022-11-24T09:12:18.282Z,98704.00
2022-11-24T09:13:53.793Z,98699.00
2022-11-24T09:15:26.955Z,98707.00
2022-11-24T09:17:01.357Z,98702.00
2022-11-24T09:18:35.025Z,98705.00
2022-11-24T09:20:08.791Z,98695.00
2022-11-24T09:21:42.080Z,98705.00
2022-11-24T09:23:15.577Z,98708.00
2022-11-24T09:24:50.852Z,98708.00
2022-11-24T09:26:26.424Z,98714.00
2022-11-24T09:27:59.900Z,98723.00
2022-11-24T09:29:34.625Z,98719.00
2022-11-24T09:31:11.526Z,98714.00
2022-11-24T09:32:44.888Z,98722.00
2022-11-24T09:34:18.057Z,98722.00
2022-11-24T09:35:51.382Z,98726.00
2022-11-24T09:37:28.219Z,98738.00
2022-11-24T09:39:04.593Z,98730.00
2022-11-24T09:40:37.807Z,98742.00
2022-11-24T09:42:17.052Z,98742.00
2022-11-24T09:44:04.040Z,98748.00
2022-11-24T09:46:04.923Z,98746.00
2022-11-24T09:47:52.845Z,98752.00
2022-11-24T09:49:37.100Z,98763.00
2022-11-24T09:51:15.247Z,98761.00
2022-11-24T09:52:59.109Z,98763.00
2022-11-24T09:54:36.633Z,98757.00
2022-11-24T09:56:21.368Z,98764.00
2022-11-24T09:58:07.139Z,98761.00
2022-11-24T09:59:43.535Z,98761.00
2022-11-24T10:01:21.236Z,98762.00
2022-11-24T10:02:54.507Z,98770.00
2022-11-24T10:04:32.343Z,98772.00
2022-11-24T10:06:21.458Z,98764.00
2022-11-24T10:08:11.300Z,98774.00
2022-11-24T10:10:03.231Z,98773.00
2022-11-24T10:11:46.480Z,98777.00
2022-11-24T10:13:37.751Z,98775.00
2022-11-24T10:15:31.953Z,98783.00
2022-11-24T10:17:24.431Z,98780.00
2022-11-24T10:19:14.326Z,98791.00
2022-11-24T10:21:02.092Z,98791.00
2022-11-24T10:22:49.884Z,98783.00
2022-11-24T10:25:00.406Z,98800.00
2022-11-24T10:26:39.430Z,98801.00
2022-11-24T10:28:16.147Z,98802.00
2022-11-24T10:29:53.474Z,98802.00
2022-11-24T10:31:35.105Z,98800.00
2022-11-24T10:33:21.361Z,98796.00
2022-11-24T10:35:01.598Z,98805.00
2022-11-24T10:36:50.464Z,98799.00
2022-11-24T10:38:35.872Z,98804.00
2022-11-24T10:40:48.671Z,98807.00
2022-11-24T10:42:19.952Z,98814.00
2022-11-24T10:43:58.840Z,98816.00
2022-11-24T10:45:33.057Z,98807.00
2022-11-24T10:47:20.109Z,98807.00
2022-11-24T10:48:59.774Z,98812.00
2022-11-24T10:50:37.462Z,98816.00
2022-11-24T10:52:17.455Z,98809.00
2022-11-24T10:53:59.884Z,98817.00
2022-11-24T10:56:02.392Z,98824.00
2022-11-24T10:57:38.186Z,98815.00
2022-11-24T10:59:38.708Z,98808.00
2022-11-24T11:01:29.193Z,98826.00
2022-11-24T11:03:19.404Z,98823.00
2022-11-24T11:04:53.920Z,98821.00
2022-11-24T11:06:29.949Z,98810.00
2022-11-24T11:08:29.098Z,98823.00
2022-11-24T11:10:22.785Z,98825.00
2022-11-24T11:11:56.952Z,98821.00
2022-11-24T11:13:32.630Z,98823.00
2022-11-24T11:15:26.274Z,98824.00
2022-11-24T11:17:00.775Z,98830.00
2022-11-24T11:18:35.132Z,98836.00
2022-11-24T11:20:20.018Z,98838.00
2022-11-24T11:22:03.552Z,98832.00
2022-11-24T11:23:46.717Z,98842.00
2022-11-24T11:25:24.134Z,98845.00
2022-11-24T11:27:02.273Z,98837.00
2022-11-24T11:28:35.652Z,98837.00
2022-11-24T11:34:25.222Z,98837.00
2022-11-24T11:36:10.968Z,98842.00
2022-11-24T11:37:46.581Z,98849.00
2022-11-24T11:39:26.237Z,98846.00
2022-11-24T11:40:59.623Z,98855.00
2022-11-24T11:43:01.959Z,98861.00
2022-11-24T11:44:41.480Z,98855.00
2022-11-24T11:46:17.012Z,98851.00
2022-11-24T11:47:56.561Z,98862.00
2022-11-24T11:49:29.738Z,98863.00
2022-11-24T11:51:27.592Z,98849.00
2022-11-24T11:53:15.988Z,98862.00
2022-11-24T11:55:15.488Z,98857.00
2022-11-24T11:56:55.954Z,98854.00
2022-11-24T11:59:04.222Z,98857.00
2022-11-24T12:00:47.507Z,98868.00
2022-11-24T12:02:53.669Z,98863.00
2022-11-24T12:04:45.252Z,98859.00
2022-11-24T12:06:38.014Z,98865.00
2022-11-24T12:08:55.922Z,98853.00
2022-11-24T12:10:39.854Z,98855.00
2022-11-24T12:12:50.316Z,98865.00
2022-11-24T12:14:39.627Z,98865.00
2022-11-24T12:16:35.446Z,98863.00
2022-11-24T12:18:56.524Z,98870.00
2022-11-24T12:20:46.419Z,98880.00
2022-11-24T12:22:34.552Z,98874.00
2022-11-24T12:24:18.798Z,98873.00
2022-11-24T12:26:00.209Z,98865.00
2022-11-24T12:27:47.801Z,98867.00
2022-11-24T12:30:03.527Z,98872.00
2022-11-24T12:31:52.519Z,98864.00
2022-11-24T12:34:05.555Z,98871.00
2022-11-24T12:35:43.958Z,98869.00
2022-11-24T12:37:48.899Z,98877.00
2022-11-24T12:39:30.852Z,98871.00
2022-11-24T12:41:41.179Z,98886.00
2022-11-24T12:43:26.732Z,98882.00
2022-11-24T12:45:14.062Z,98873.00
2022-11-24T12:46:59.634Z,98876.00
2022-11-24T12:48:46.421Z,98877.00
2022-11-24T12:50:23.913Z,98880.00
2022-11-24T12:52:03.758Z,98876.00
2022-11-24T12:53:40.283Z,98881.00
2022-11-24T12:55:19.556Z,98882.00
2022-11-24T12:57:03.257Z,98878.00
2022-11-24T12:58:48.763Z,98871.00
2022-11-24T13:00:24.960Z,98879.00
2022-11-24T13:02:18.329Z,98873.00
2022-11-24T13:04:08.358Z,98876.00
2022-11-24T13:05:53.321Z,98883.00
2022-11-24T13:07:45.665Z,98873.00
2022-11-24T13:09:21.497Z,98887.00
2022-11-24T13:10:57.141Z,98879.00
2022-11-24T13:12:31.484Z,98881.00
2022-11-24T13:14:13.413Z,98878.00
2022-11-24T13:18:55.543Z,98883.00
2022-11-24T13:20:37.136Z,98885.00
2022-11-24T13:22:19.246Z,98883.00
2022-11-24T13:23:58.841Z,98888.00
2022-11-24T13:25:34.841Z,98888.00
2022-11-24T13:27:29.942Z,98885.00
2022-11-24T13:29:23.917Z,98896.00
2022-11-24T13:31:12.470Z,98886.00
2022-11-24T13:33:21.649Z,98884.00
2022-11-24T13:35:15.060Z,98881.00
2022-11-24T13:36:54.868Z,98897.00
2022-11-24T13:38:42.224Z,98890.00
2022-11-24T13:40:54.616Z,98878.00
2022-11-24T13:43:25.928Z,98882.00
2022-11-24T13:45:00.640Z,98889.00
2022-11-24T13:47:05.322Z,98887.00
2022-11-24T13:49:01.198Z,98893.00
2022-11-24T13:51:20.776Z,98886.00
2022-11-24T13:53:07.225Z,98890.00
2022-11-24T13:54:42.487Z,98878.00
2022-11-24T13:56:27.244Z,98892.00
2022-11-24T13:58:23.900Z,98885.00
2022-11-24T14:00:05.012Z,98885.00
2022-11-24T14:01:58.481Z,98895.00
2022-11-24T14:03:35.782Z,98886.00
2022-11-24T14:05:15.573Z,98889.00
2022-11-24T14:07:05.613Z,98901.00
2022-11-24T14:08:40.864Z,98890.00
2022-11-24T14:10:19.260Z,98890.00
2022-11-24T14:12:04.015Z,98888.00
2022-11-24T14:13:37.396Z,98895.00
2022-11-24T14:15:27.962Z,98895.00
2022-11-24T14:17:20.489Z,98905.00
2022-11-24T14:18:54.184Z,98907.00
2022-11-24T14:20:29.159Z,98905.00
2022-11-24T14:22:02.320Z,98891.00
2022-11-24T14:23:35.626Z,98894.00
2022-11-24T14:25:27.565Z,98902.00
2022-11-24T14:27:02.123Z,98904.00
2022-11-24T14:28:35.390Z,98910.00
2022-11-24T14:30:21.966Z,98912.00
2022-11-24T14:31:56.165Z,98904.00
2022-11-24T14:33:30.709Z,98906.00
2022-11-24T14:35:21.599Z,98903.00
2022-11-24T14:36:57.506Z,98907.00
2022-11-24T14:38:30.901Z,98910.00
2022-11-24T14:40:04.348Z,98903.00
2022-11-24T14:41:38.147Z,98910.00
2022-11-24T14:43:23.428Z,98911.00
2022-11-24T14:44:59.583Z,98915.00
2022-11-24T14:46:33.367Z,98911.00
2022-11-24T14:48:15.972Z,98912.00
2022-11-24T14:49:51.625Z,98917.00
2022-11-24T14:51:29.076Z,98915.00
2022-11-24T14:53:02.399Z,98910.00
2022-11-24T14:54:44.137Z,98916.00
2022-11-24T14:56:27.933Z,98921.00
2022-11-24T14:58:01.443Z,98917.00
2022-11-24T14:59:38.148Z,98921.00
2022-11-24T15:01:22.524Z,98924.00
2022-11-24T15:03:08.269Z,98921.00
2022-11-24T15:05:03.749Z,98922.00
2022-11-24T15:06:37.473Z,98912.00
2022-11-24T15:08:15.771Z,98924.00
2022-11-24T15:09:57.600Z,98918.00
2022-11-24T15:11:32.054Z,98921.00
2022-11-24T15:13:17.437Z,98925.00
2022-11-24T15:14:54.475Z,98926.00
2022-11-24T15:16:31.464Z,98924.00
2022-11-24T15:18:07.570Z,98927.00
2022-11-24T15:19:40.809Z,98926.00
2022-11-24T15:21:19.476Z,98930.00
2022-11-24T15:23:20.900Z,98933.00
2022-11-24T15:24:55.516Z,98925.00
2022-11-24T15:26:36.860Z,98930.00
2022-11-24T15:28:13.611Z,98936.00
2022-11-24T15:29:46.817Z,98933.00
2022-11-24T15:31:20.096Z,98935.00
2022-11-24T15:32:57.052Z,98930.00
2022-11-24T15:34:30.222Z,98927.00
2022-11-24T15:36:03.785Z,98922.00
2022-11-24T15:37:36.047Z,98925.00
2022-11-24T15:39:10.715Z,98926.00
2022-11-24T15:40:47.207Z,98919.00
2022-11-24T15:42:20.428Z,98923.00
2022-11-24T15:43:58.792Z,98923.00
2022-11-24T15:45:31.985Z,98929.00
2022-11-24T15:47:05.320Z,98932.00
2022-11-24T15:48:39.175Z,98940.00
2022-11-24T15:50:13.504Z,98943.00
2022-11-24T15:51:49.025Z,98945.00
2022-11-24T15:53:26.623Z,98956.00
2022-11-24T15:55:01.395Z,98949.00
2022-11-24T15:56:36.875Z,98946.00
2022-11-24T15:58:13.315Z,98959.00
2022-11-24T15:59:46.485Z,98952.00
2022-11-24T16:01:22.530Z,98956.00
2022-11-24T16:02:55.835Z,98959.00
2022-11-24T16:04:29.269Z,98962.00
2022-11-24T16:06:02.608Z,98954.00
2022-11-24T16:07:35.923Z,98963.00
2022-11-24T16:09:15.661Z,98970.00
2022-11-24T16:10:51.185Z,98972.00
2022-11-24T16:12:25.068Z,98969.00
2022-11-24T16:13:58.256Z,98964.00
2022-11-24T16:15:31.838Z,98967.00
2022-11-24T16:17:05.173Z,98974.00
2022-11-24T16:18:39.978Z,98964.00
2022-11-24T16:20:13.946Z,98970.00
2022-11-24T16:21:49.928Z,98970.00
2022-11-24T16:23:23.136Z,98973.00
2022-11-24T16:24:56.312Z,98974.00
2022-11-24T16:26:30.775Z,98972.00
2022-11-24T16:28:05.037Z,98968.00
2022-11-24T16:29:38.674Z,98973.00
2022-11-24T16:31:12.583Z,98973.00
2022-11-24T16:32:45.923Z,98977.00
2022-11-24T16:34:19.160Z,98974.00
2022-11-24T16:35:54.461Z,98979.00
2022-11-24T16:37:27.608Z,98981.00
2022-11-24T16:39:01.293Z,98979.00
2022-11-24T16:40:34.461Z,98975.00
2022-11-24T16:42:09.092Z,98975.00
2022-11-24T16:43:42.216Z,98981.00
2022-11-24T16:45:15.548Z,98982.00
2022-11-24T16:46:48.763Z,98976.00
2022-11-24T16:48:22.072Z,98982.00
2022-11-24T16:49:55.375Z,98976.00
2022-11-24T16:51:34.498Z,98977.00
2022-11-24T16:53:08.220Z,98981.00
2022-11-24T16:54:41.383Z,98978.00
2022-11-24T16:56:16.349Z,98983.00
2022-11-24T16:57:50.838Z,98984.00
2022-11-24T16:59:24.157Z,98980.00
2022-11-24T17:01:05.023Z,98969.00
2022-11-24T17:02:38.156Z,98988.00
2022-11-24T17:04:12.900Z,98989.00
2022-11-24T17:05:57.787Z,98981.00
2022-11-24T17:07:31.060Z,98983.00
2022-11-24T17:09:04.728Z,98985.00
2022-11-24T17:10:39.408Z,98980.00
2022-11-24T17:12:12.611Z,98991.00
2022-11-24T17:13:49.059Z,98982.00
2022-11-24T17:15:33.470Z,98973.00
2022-11-24T17:17:06.924Z,98976.00
2022-11-24T17:18:41.376Z,98977.00
2022-11-24T17:20:14.695Z,98979.00
2022-11-24T17:21:48.270Z,98980.00
2022-11-24T17:23:21.407Z,98990.00
2022-11-24T17:24:54.648Z,98991.00
2022-11-24T17:26:29.272Z,98991.00
2022-11-24T17:28:02.400Z,98982.00
2022-11-24T17:29:36.881Z,98991.00
2022-11-24T17:31:15.064Z,99001.00
2022-11-24T17:32:51.242Z,98994.00
2022-11-24T17:34:28.409Z,98998.00
2022-11-24T17:36:03.723Z,98994.00
2022-11-24T17:37:36.970Z,99001.00
2022-11-24T17:39:11.197Z,98991.00
2022-11-24T17:40:48.678Z,98996.00
2022-11-24T17:42:21.838Z,98986.00
2022-11-24T17:43:57.048Z,98995.00
2022-11-24T17:45:32.031Z,98990.00
2022-11-24T17:47:05.221Z,98992.00
2022-11-24T17:48:38.624Z,98991.00
2022-11-24T17:50:12.737Z,98989.00
2022-11-24T17:51:50.286Z,98990.00
2022-11-24T17:53:23.512Z,99001.00
2022-11-24T17:54:57.522Z,98996.00
2022-11-24T17:56:30.988Z,99004.00
2022-11-24T17:58:04.143Z,98998.00
2022-11-24T17:59:37.293Z,99007.00
2022-11-24T18:01:13.298Z,99011.00
2022-11-24T18:02:46.783Z,99005.00
2022-11-24T18:04:20.192Z,99002.00
2022-11-24T18:05:53.394Z,99008.00
2022-11-24T18:07:26.784Z,99010.00
2022-11-24T18:08:59.970Z,99005.00
2022-11-24T18:10:33.722Z,98995.00
2022-11-24T18:12:07.979Z,99019.00
2022-11-24T18:13:58.272Z,99005.00
2022-11-24T18:15:35.086Z,99005.00
2022-11-24T18:17:10.298Z,99007.00
2022-11-24T18:18:50.098Z,99002.00
2022-11-24T18:20:26.407Z,99001.00
2022-11-24T18:21:59.674Z,99003.00
2022-11-24T18:23:35.747Z,99008.00
2022-11-24T18:25:10.083Z,99004.00
2022-11-24T18:26:44.735Z,99001.00
2022-11-24T18:28:18.100Z,99006.00
2022-11-24T18:29:56.056Z,99002.00
2022-11-24T18:31:31.018Z,98996.00
2022-11-24T18:33:05.661Z,99007.00
2022-11-24T18:34:38.785Z,99010.00
2022-11-24T18:36:15.301Z,99009.00
2022-11-24T18:37:48.716Z,99004.00
2022-11-24T18:39:22.132Z,99002.00
2022-11-24T18:40:57.097Z,99009.00
2022-11-24T18:42:30.431Z,99013.00
2022-11-24T18:44:07.993Z,99015.00
2022-11-24T18:45:41.495Z,99019.00
2022-11-24T18:47:14.762Z,99016.00
2022-11-24T18:48:51.841Z,99008.00
2022-11-24T18:50:25.029Z,99017.00
2022-11-24T18:51:58.316Z,99015.00
2022-11-24T18:53:31.781Z,99017.00
2022-11-24T18:55:05.273Z,99017.00
2022-11-24T18:56:38.852Z,99023.00
2022-11-24T18:58:12.304Z,99019.00
2022-11-24T18:59:45.447Z,99026.00
2022-11-24T19:01:21.843Z,99020.00
2022-11-24T19:02:55.160Z,99024.00
2022-11-24T19:04:30.020Z,99019.00
2022-11-24T19:06:04.047Z,99024.00
2022-11-24T19:07:37.299Z,99020.00
2022-11-24T19:09:16.326Z,99020.00
2022-11-24T19:10:49.737Z,99019.00
2022-11-24T19:12:22.899Z,99023.00